Time;durP1;ratioP1;P1;durP2;ratioP2;P2;SDS_P1;SDS_P2;PMS_P1;PMS_P2;Temp;Humidity;BMP_temperature;BMP_pressure;BME280_temperature;BME280_humidity;BME280_pressure;Samples;Min_cycle;Max_cycle;Signal;HPM_P1;HPM_P2
2021/07/21 00:02:02;;;;;;;;;;;;;;;20.92;61.98;100179.72;5162147;27;779;-53
2021/07/21 00:04:27;;;;;;;;;;;;;;;20.96;61.77;100172.41;5162456;27;1010;-50
2021/07/21 00:06:53;;;;;;;;;;;;;;;20.10;61.17;100171.50;5162414;27;735;-43
2021/07/21 00:09:18;;;;;;;;;;;;;;;20.69;62.20;100168.66;5161939;27;783;-43
2021/07/21 00:14:27;;;;;;;;;;;;;;;21.64;59.69;100169.38;5162338;27;758;-49
2021/07/21 00:17:06;;;;;;;;;;;;;;;21.16;60.94;100171.03;5162376;27;739;-54
2021/07/21 00:22:15;;;;;;;;;;;;;;;20.39;61.47;100176.59;5162083;27;806;-54
2021/07/21 00:24:41;;;;;;;;;;;;;;;20.25;60.64;100179.41;5162291;27;775;-42
2021/07/21 00:27:06;;;;;;;;;;;;;;;20.59;63.42;100177.19;5161631;27;1008;-52
2021/07/21 00:29:32;;;;;;;;;;;;;;;21.11;62.20;100177.50;5161614;27;739;-51
2021/07/21 00:32:00;;;;;;;;;;;;;;;21.30;61.17;100176.44;5162211;27;1905;-52
2021/07/21 00:34:25;;;;;;;;;;;;;;;21.30;61.13;100173.69;5162268;27;785;-48
2021/07/21 00:36:51;;;;;;;;;;;;;;;21.19;61.11;100167.59;5162181;27;767;-55
2021/07/21 00:39:16;;;;;;;;;;;;;;;21.17;61.54;100181.75;5143472;27;1104;-55
2021/07/21 00:41:42;;;;;;;;;;;;;;;20.74;60.49;100182.34;5142778;27;1216;-53
2021/07/21 00:44:07;;;;;;;;;;;;;;;20.41;59.61;100177.09;5161481;27;827;-53
2021/07/21 00:46:36;;;;;;;;;;;;;;;20.87;62.25;100177.06;5143140;27;1263;-43
2021/07/21 00:49:02;;;;;;;;;;;;;;;21.11;61.54;100176.69;5161160;27;827;-54
2021/07/21 00:51:27;;;;;;;;;;;;;;;21.35;60.82;100188.16;5142986;27;1134;-53
2021/07/21 00:53:53;;;;;;;;;;;;;;;20.92;62.01;100188.81;5143196;27;1988;-53
2021/07/21 00:56:22;;;;;;;;;;;;;;;20.98;62.00;100184.75;5137074;27;1123;-53
2021/07/21 00:58:48;;;;;;;;;;;;;;;20.47;60.53;100180.56;5141040;27;868;-43
2021/07/21 01:01:14;;;;;;;;;;;;;;;20.62;62.43;100182.09;5140612;27;799;-53
2021/07/21 01:03:39;;;;;;;;;;;;;;;21.32;61.32;100187.97;5140167;27;1026;-46
2021/07/21 01:06:05;;;;;;;;;;;;;;;21.19;61.37;100182.25;5140297;27;775;-54
2021/07/21 01:08:31;;;;;;;;;;;;;;;21.08;61.54;100186.41;5122066;27;1458;-54
2021/07/21 01:11:18;;;;;;;;;;;;;;;20.68;62.86;100186.41;5139843;27;945;-54
2021/07/21 01:13:53;;;;;;;;;;;;;;;20.58;61.19;100186.63;5121661;27;1909;-54
2021/07/21 01:16:20;;;;;;;;;;;;;;;20.06;61.17;100187.03;5122150;27;1207;-43
2021/07/21 01:18:58;;;;;;;;;;;;;;;20.83;62.59;100191.53;5121976;27;1299;-55
2021/07/21 01:21:36;;;;;;;;;;;;;;;21.26;61.38;100186.50;5122418;27;814;-43
2021/07/21 01:24:05;;;;;;;;;;;;;;;21.25;61.17;100187.63;5122246;27;887;-55
2021/07/21 01:26:36;;;;;;;;;;;;;;;20.98;61.83;100195.00;5121252;27;1148;-54
2021/07/21 01:29:01;;;;;;;;;;;;;;;20.88;62.31;100196.09;5140506;27;816;-52
2021/07/21 01:31:30;;;;;;;;;;;;;;;20.37;61.41;100192.66;5140057;27;763;-42
2021/07/21 01:33:56;;;;;;;;;;;;;;;19.97;62.03;100195.25;5139710;27;1913;-53
2021/07/21 01:36:23;;;;;;;;;;;;;;;20.61;63.48;100197.06;5121956;27;748;-52
2021/07/21 01:38:50;;;;;;;;;;;;;;;21.26;61.39;100194.81;5104413;27;1319;-51
2021/07/21 01:41:21;;;;;;;;;;;;;;;21.33;60.60;100201.47;5121341;27;1009;-50
2021/07/21 01:43:49;;;;;;;;;;;;;;;20.72;61.01;100198.44;5121761;27;1141;-50
2021/07/21 01:46:15;;;;;;;;;;;;;;;20.68;61.65;100197.44;5121286;27;836;-53
2021/07/21 01:48:45;;;;;;;;;;;;;;;20.48;60.41;100188.53;5122031;27;740;-43
2021/07/21 01:51:11;;;;;;;;;;;;;;;20.30;62.97;100200.53;5106188;27;1264;-51
2021/07/21 01:53:38;;;;;;;;;;;;;;;21.13;60.66;100196.53;5120713;27;1917;-54
2021/07/21 01:56:08;;;;;;;;;;;;;;;21.32;59.99;100193.50;5123847;27;1251;-53
2021/07/21 01:58:34;;;;;;;;;;;;;;;20.92;61.18;100205.38;5160209;27;783;-54
2021/07/21 02:01:18;;;;;;;;;;;;;;;20.77;61.72;100200.25;5127799;27;1235;-54
2021/07/21 02:03:44;;;;;;;;;;;;;;;20.42;61.02;100206.31;5159970;27;1021;-52
2021/07/21 02:06:18;;;;;;;;;;;;;;;20.32;62.06;100212.09;5125270;27;1668;-53
2021/07/21 02:08:46;;;;;;;;;;;;;;;20.75;62.50;100213.56;5124557;27;1258;-51
2021/07/21 02:11:19;;;;;;;;;;;;;;;21.03;60.96;100222.50;5140712;27;961;-48
2021/07/21 02:13:46;;;;;;;;;;;;;;;21.41;59.96;100219.25;5159725;27;1937;-52
2021/07/21 02:16:35;;;;;;;;;;;;;;;20.83;61.70;100227.44;5127386;27;1023;-54
2021/07/21 02:19:03;;;;;;;;;;;;;;;20.68;62.05;100219.56;5140776;27;1462;-54
2021/07/21 02:21:43;;;;;;;;;;;;;;;20.08;61.63;100218.72;5141886;27;1299;-53
2021/07/21 02:24:08;;;;;;;;;;;;;;;20.90;62.25;100224.25;5141197;27;881;-55
2021/07/21 02:27:09;;;;;;;;;;;;;;;21.30;60.54;100217.91;5095282;28;1274;-54
2021/07/21 02:29:35;;;;;;;;;;;;;;;21.35;60.09;100215.81;5129242;27;1136;-54
2021/07/21 02:32:06;;;;;;;;;;;;;;;20.78;62.07;100219.28;5138603;27;1972;-51
2021/07/21 02:34:32;;;;;;;;;;;;;;;20.64;62.38;100210.22;5120387;27;1227;-46
2021/07/21 02:36:58;;;;;;;;;;;;;;;20.18;60.19;100212.97;5137884;27;1319;-42
2021/07/21 02:39:24;;;;;;;;;;;;;;;20.38;63.06;100215.56;5139189;27;787;-51
2021/07/21 02:41:49;;;;;;;;;;;;;;;20.67;63.07;100213.19;5147436;27;930;-46
2021/07/21 02:44:20;;;;;;;;;;;;;;;20.94;60.50;100222.44;5140708;27;1328;-49
2021/07/21 02:46:48;;;;;;;;;;;;;;;21.22;59.72;100222.25;5140993;27;1160;-49
2021/07/21 02:49:22;;;;;;;;;;;;;;;21.01;60.53;100217.31;5123689;27;1203;-51
2021/07/21 02:52:04;;;;;;;;;;;;;;;20.57;62.39;100221.72;5141717;27;1984;-53
2021/07/21 02:54:53;;;;;;;;;;;;;;;20.33;61.31;100219.25;5140521;27;1485;-43
2021/07/21 02:57:22;;;;;;;;;;;;;;;20.11;61.69;100223.63;5126707;27;1331;-43
2021/07/21 02:59:49;;;;;;;;;;;;;;;20.70;62.60;100233.03;5120412;27;801;-51
2021/07/21 03:02:15;;;;;;;;;;;;;;;21.15;60.83;100227.44;5119505;27;1941;-53
2021/07/21 03:04:40;;;;;;;;;;;;;;;21.27;60.20;100230.44;5119765;27;1058;-42
2021/07/21 03:07:22;;;;;;;;;;;;;;;20.93;61.18;100231.91;5119588;27;1487;-54
2021/07/21 03:09:50;;;;;;;;;;;;;;;20.61;62.23;100231.00;5102839;27;1063;-42
2021/07/21 03:12:16;;;;;;;;;;;;;;;20.59;60.21;100237.97;5102131;27;1913;-54
2021/07/21 03:15:10;;;;;;;;;;;;;;;20.31;62.89;100232.56;5094353;27;1323;-42
2021/07/21 03:17:39;;;;;;;;;;;;;;;20.91;61.71;100238.88;5119746;27;940;-43
2021/07/21 03:20:07;;;;;;;;;;;;;;;21.23;60.37;100243.25;5103264;27;1340;-52
2021/07/21 03:22:39;;;;;;;;;;;;;;;21.09;60.79;100240.59;5119472;27;961;-51
2021/07/21 03:25:14;;;;;;;;;;;;;;;20.76;61.98;100253.88;5104428;27;1257;-50
2021/07/21 03:27:49;;;;;;;;;;;;;;;20.54;62.39;100249.97;5137277;27;1001;-55
2021/07/21 03:30:25;;;;;;;;;;;;;;;19.91;60.87;100244.22;5119110;27;1208;-43
2021/07/21 03:33:07;;;;;;;;;;;;;;;20.51;63.50;100254.16;5122050;27;1915;-45
2021/07/21 03:35:39;;;;;;;;;;;;;;;21.00;61.24;100251.59;5119871;27;839;-44
2021/07/21 03:38:06;;;;;;;;;;;;;;;21.07;61.04;100258.63;5137881;27;787;-52
2021/07/21 03:40:36;;;;;;;;;;;;;;;20.95;61.33;100250.91;5119743;27;1070;-52
2021/07/21 03:43:01;;;;;;;;;;;;;;;20.64;62.29;100248.91;5118764;28;1000;-55
2021/07/21 03:45:34;;;;;;;;;;;;;;;20.23;59.97;100258.13;5120691;27;835;-54
2021/07/21 03:48:02;;;;;;;;;;;;;;;20.16;62.46;100258.56;5119660;28;811;-51
2021/07/21 03:50:48;;;;;;;;;;;;;;;20.75;61.85;100266.88;5123740;27;1149;-53
2021/07/21 03:53:14;;;;;;;;;;;;;;;20.94;61.15;100265.88;5158460;27;1976;-61
2021/07/21 03:55:40;;;;;;;;;;;;;;;21.26;60.19;100269.47;5139871;27;1262;-43
2021/07/21 03:58:19;;;;;;;;;;;;;;;20.69;62.22;100268.13;5120947;28;787;-50
2021/07/21 04:00:54;;;;;;;;;;;;;;;20.67;62.08;100270.38;5120745;28;806;-52
2021/07/21 04:03:25;;;;;;;;;;;;;;;20.27;60.17;100259.16;5136525;28;1111;-43
2021/07/21 04:06:01;;;;;;;;;;;;;;;20.84;62.10;100267.75;5121110;28;748;-52
2021/07/21 04:08:38;;;;;;;;;;;;;;;21.26;60.83;100270.25;5103467;28;1997;-43
2021/07/21 04:11:05;;;;;;;;;;;;;;;21.49;59.91;100264.66;5121368;27;1400;-53
2021/07/21 04:13:33;;;;;;;;;;;;;;;20.98;61.40;100270.44;5158041;27;1910;-43
2021/07/21 04:16:11;;;;;;;;;;;;;;;20.82;61.98;100270.03;5124389;27;1328;-42
2021/07/21 04:18:38;;;;;;;;;;;;;;;20.47;60.72;100266.97;5158056;27;791;-43
2021/07/21 04:21:05;;;;;;;;;;;;;;;20.63;62.05;100281.22;5139256;27;908;-42
2021/07/21 04:23:31;;;;;;;;;;;;;;;21.18;61.21;100274.63;5139220;27;1095;-42
2021/07/21 04:26:01;;;;;;;;;;;;;;;21.41;60.35;100282.06;5122292;27;2049;-53
2021/07/21 04:28:28;;;;;;;;;;;;;;;21.08;61.14;100285.94;5158271;27;807;-43
2021/07/21 04:31:00;;;;;;;;;;;;;;;20.76;62.41;100287.88;5140812;27;811;-44
2021/07/21 04:33:28;;;;;;;;;;;;;;;20.64;60.86;100287.56;5122418;27;1916;-44
2021/07/21 04:35:54;;;;;;;;;;;;;;;20.55;60.70;100290.25;5122031;27;1150;-43
2021/07/21 04:38:20;;;;;;;;;;;;;;;21.14;61.61;100297.69;5157966;27;1504;-42
2021/07/21 04:41:14;;;;;;;;;;;;;;;21.60;59.98;100306.72;5159280;27;1009;-53
2021/07/21 04:43:48;;;;;;;;;;;;;;;21.35;60.35;100303.53;5161661;27;804;-42
2021/07/21 04:46:40;;;;;;;;;;;;;;;20.78;61.19;100302.16;5144624;27;1101;-50
2021/07/21 04:49:06;;;;;;;;;;;;;;;20.62;60.46;100309.16;5143020;27;887;-42
2021/07/21 04:51:32;;;;;;;;;;;;;;;20.39;60.36;100303.59;5161564;27;1185;-44
2021/07/21 04:54:05;;;;;;;;;;;;;;;20.98;61.52;100305.56;5142773;27;1979;-53
2021/07/21 04:56:36;;;;;;;;;;;;;;;21.46;59.99;100313.16;5154075;27;1049;-44
2021/07/21 04:59:01;;;;;;;;;;;;;;;21.45;59.79;100306.00;5140650;27;778;-52
2021/07/21 05:01:27;;;;;;;;;;;;;;;21.20;60.55;100308.28;5121749;27;1309;-56
2021/07/21 05:03:54;;;;;;;;;;;;;;;20.89;61.89;100305.50;5139690;27;1028;-54
2021/07/21 05:06:40;;;;;;;;;;;;;;;20.53;60.69;100309.09;5139367;27;1400;-51
2021/07/21 05:09:06;;;;;;;;;;;;;;;20.67;61.62;100311.81;5122100;27;1212;-54
2021/07/21 05:11:41;;;;;;;;;;;;;;;21.17;61.53;100314.47;5148536;27;996;-48
2021/07/21 05:14:07;;;;;;;;;;;;;;;21.61;60.07;100313.91;5161085;27;1913;-53
2021/07/21 05:16:49;;;;;;;;;;;;;;;21.05;61.96;100316.19;5143154;27;1186;-49
2021/07/21 05:19:14;;;;;;;;;;;;;;;21.02;62.14;100306.56;5160294;27;874;-56
2021/07/21 05:21:42;;;;;;;;;;;;;;;20.75;60.34;100313.03;5142541;27;1409;-45
2021/07/21 05:24:08;;;;;;;;;;;;;;;20.58;61.86;100314.50;5142629;27;1152;-44
2021/07/21 05:26:33;;;;;;;;;;;;;;;21.29;61.61;100307.53;5153532;27;991;-45
2021/07/21 05:29:09;;;;;;;;;;;;;;;21.60;60.37;100321.41;5140095;27;748;-48
2021/07/21 05:31:47;;;;;;;;;;;;;;;21.26;61.65;100317.28;5151305;27;830;-44
2021/07/21 05:34:33;;;;;;;;;;;;;;;20.96;62.62;100321.66;5142521;27;1110;-44
2021/07/21 05:37:18;;;;;;;;;;;;;;;20.55;61.21;100323.41;5143216;27;1486;-56
2021/07/21 05:39:56;;;;;;;;;;;;;;;20.48;60.90;100325.78;5178594;27;880;-54
2021/07/21 05:42:39;;;;;;;;;;;;;;;21.29;61.91;100335.19;5146122;27;1336;-51
2021/07/21 05:45:05;;;;;;;;;;;;;;;21.73;60.90;100333.50;5141595;27;1155;-56
2021/07/21 05:47:31;;;;;;;;;;;;;;;21.58;61.19;100333.91;5142281;27;767;-50
2021/07/21 05:49:57;;;;;;;;;;;;;;;20.99;62.05;100329.31;5160480;27;818;-44
2021/07/21 05:52:30;;;;;;;;;;;;;;;20.97;62.56;100337.09;5140936;27;1982;-55
2021/07/21 05:54:57;;;;;;;;;;;;;;;20.60;61.46;100333.53;5171657;27;1402;-56
2021/07/21 05:57:24;;;;;;;;;;;;;;;20.28;61.75;100332.56;5140427;27;1235;-47
2021/07/21 06:00:04;;;;;;;;;;;;;;;20.83;63.49;100332.44;5121434;27;1105;-45
2021/07/21 06:02:40;;;;;;;;;;;;;;;21.50;61.64;100339.06;5162576;27;657;-44
2021/07/21 06:05:06;;;;;;;;;;;;;;;21.40;61.70;100346.81;5162184;27;1235;-57
2021/07/21 06:07:50;;;;;;;;;;;;;;;21.06;62.76;100337.97;5180734;27;612;-44
2021/07/21 06:10:22;;;;;;;;;;;;;;;20.79;62.21;100347.19;5162547;27;1393;-45
2021/07/21 06:12:56;;;;;;;;;;;;;;;20.37;59.99;100350.06;5159995;27;1988;-55
2021/07/21 06:15:28;;;;;;;;;;;;;;;20.92;61.96;100345.53;5141157;27;1239;-48
2021/07/21 06:17:53;;;;;;;;;;;;;;;21.20;63.18;100358.06;5141337;27;1124;-48
2021/07/21 06:20:22;;;;;;;;;;;;;;;21.64;61.88;100361.13;5147825;27;1405;-55
2021/07/21 06:22:50;;;;;;;;;;;;;;;21.12;62.48;100361.59;5149741;27;1208;-58
2021/07/21 06:25:18;;;;;;;;;;;;;;;21.01;63.50;100362.97;5159488;27;838;-59
2021/07/21 06:28:06;;;;;;;;;;;;;;;20.61;62.94;100358.06;5108562;27;1429;-50
2021/07/21 06:30:35;;;;;;;;;;;;;;;20.45;61.78;100365.06;5136971;27;1180;-45
2021/07/21 06:33:02;;;;;;;;;;;;;;;21.27;63.17;100359.59;5139124;27;1913;-57
2021/07/21 06:35:28;;;;;;;;;;;;;;;21.80;61.24;100350.44;5142906;27;1385;-57
2021/07/21 06:37:54;;;;;;;;;;;;;;;21.39;62.23;100357.03;5160012;27;1144;-59
2021/07/21 06:40:23;;;;;;;;;;;;;;;21.16;63.36;100357.06;5141361;27;1178;-46
2021/07/21 06:42:49;;;;;;;;;;;;;;;21.18;61.83;100357.59;5140870;27;1176;-58
2021/07/21 06:45:14;;;;;;;;;;;;;;;20.40;59.20;100354.97;5160844;27;1480;-58
2021/07/21 06:47:49;;;;;;;;;;;;;;;20.39;59.24;100358.03;5172144;27;834;-58
2021/07/21 06:50:30;;;;;;;;;;;;;;;20.33;57.46;100351.81;5145403;27;1477;-51
2021/07/21 06:52:56;;;;;;;;;;;;;;;20.18;55.29;100356.50;5167925;27;1985;-55
2021/07/21 06:55:41;;;;;;;;;;;;;;;20.02;55.06;100354.38;5173759;27;1160;-55
2021/07/21 06:58:07;;;;;;;;;;;;;;;20.30;54.08;100355.16;5159071;27;1000;-45
2021/07/21 07:00:48;;;;;;;;;;;;;;;20.45;55.10;100354.81;5158386;27;847;-52
2021/07/21 07:03:33;;;;;;;;;;;;;;;20.79;56.04;100353.56;5162725;27;1609;-57
2021/07/21 07:06:17;;;;;;;;;;;;;;;20.78;57.57;100357.44;5165082;27;1302;-57
2021/07/21 07:09:00;;;;;;;;;;;;;;;20.95;58.33;100353.19;5159603;27;651;-56
2021/07/21 07:11:46;;;;;;;;;;;;;;;20.96;59.13;100354.81;5126090;27;1159;-57
2021/07/21 07:14:12;;;;;;;;;;;;;;;20.60;60.91;100361.16;5162715;27;1974;-58
2021/07/21 07:16:38;;;;;;;;;;;;;;;20.46;60.27;100362.00;5161332;27;1379;-57
2021/07/21 07:19:03;;;;;;;;;;;;;;;20.38;61.47;100359.94;5168428;27;1342;-53
2021/07/21 07:21:29;;;;;;;;;;;;;;;21.08;60.48;100360.59;5164658;27;1390;-57
2021/07/21 07:23:57;;;;;;;;;;;;;;;21.24;59.78;100362.97;5168860;27;1404;-57
2021/07/21 07:26:22;;;;;;;;;;;;;;;21.14;60.18;100361.25;5169331;27;834;-57
2021/07/21 07:28:48;;;;;;;;;;;;;;;20.90;61.29;100364.34;5158477;27;769;-58
2021/07/21 07:31:13;;;;;;;;;;;;;;;20.64;61.29;100367.69;5161798;27;1508;-45
2021/07/21 07:33:39;;;;;;;;;;;;;;;20.11;59.78;100366.34;5158343;27;1905;-56
2021/07/21 07:36:04;;;;;;;;;;;;;;;20.93;61.22;100366.47;5158485;27;759;-53
2021/07/21 07:38:30;;;;;;;;;;;;;;;21.24;60.61;100362.97;5159793;27;1230;-44
2021/07/21 07:40:55;;;;;;;;;;;;;;;21.48;59.93;100368.97;5157834;27;922;-44
2021/07/21 07:43:21;;;;;;;;;;;;;;;21.05;61.12;100363.97;5158163;27;858;-58
2021/07/21 07:45:46;;;;;;;;;;;;;;;21.15;61.07;100369.28;5158705;27;751;-59
2021/07/21 07:48:11;;;;;;;;;;;;;;;21.00;60.29;100369.66;5158378;27;878;-46
2021/07/21 07:50:37;;;;;;;;;;;;;;;20.34;60.36;100370.81;5164510;27;986;-59
2021/07/21 07:53:02;;;;;;;;;;;;;;;20.74;62.58;100366.66;5157460;27;1909;-57
2021/07/21 07:55:29;;;;;;;;;;;;;;;21.13;61.51;100370.72;5161761;27;817;-56
2021/07/21 07:57:54;;;;;;;;;;;;;;;21.25;60.70;100370.13;5160099;27;964;-51
2021/07/21 08:00:20;;;;;;;;;;;;;;;21.12;61.13;100371.84;5158116;27;838;-45
2021/07/21 08:02:45;;;;;;;;;;;;;;;21.02;61.55;100372.91;5158161;27;827;-57
2021/07/21 08:05:11;;;;;;;;;;;;;;;20.89;60.45;100371.84;5157381;27;1148;-59
2021/07/21 08:07:36;;;;;;;;;;;;;;;20.26;58.75;100374.31;5158040;27;842;-45
2021/07/21 08:10:03;;;;;;;;;;;;;;;20.92;61.53;100362.09;5166640;27;1569;-58
2021/07/21 08:12:28;;;;;;;;;;;;;;;21.43;61.17;100371.06;5164134;27;1909;-57
2021/07/21 08:14:53;;;;;;;;;;;;;;;21.35;61.00;100372.66;5161086;27;1209;-58
2021/07/21 08:17:19;;;;;;;;;;;;;;;21.25;61.16;100365.44;5168846;27;1345;-57
2021/07/21 08:19:44;;;;;;;;;;;;;;;21.18;61.47;100370.56;5161782;27;1412;-54
2021/07/21 08:22:10;;;;;;;;;;;;;;;20.71;61.94;100361.78;5170721;27;1369;-46
2021/07/21 08:24:36;;;;;;;;;;;;;;;20.41;59.99;100370.41;5166413;27;1468;-53
2021/07/21 08:27:01;;;;;;;;;;;;;;;20.42;62.06;100365.69;5166954;27;1497;-55
2021/07/21 08:29:27;;;;;;;;;;;;;;;21.23;61.77;100356.63;5167755;27;1662;-55
2021/07/21 08:31:52;;;;;;;;;;;;;;;21.40;61.61;100363.41;5162090;27;1326;-51
2021/07/21 08:34:18;;;;;;;;;;;;;;;21.23;62.08;100355.81;5176331;27;1980;-57
2021/07/21 08:36:43;;;;;;;;;;;;;;;21.19;62.24;100361.16;5182594;27;758;-55
2021/07/21 08:39:12;;;;;;;;;;;;;;;20.84;62.20;100367.22;5182358;27;790;-58
2021/07/21 08:41:38;;;;;;;;;;;;;;;20.41;59.72;100364.03;5149490;27;811;-57
2021/07/21 08:44:04;;;;;;;;;;;;;;;20.96;61.00;100363.91;5142514;27;1125;-57
2021/07/21 08:46:30;;;;;;;;;;;;;;;21.39;61.67;100368.09;5161579;27;742;-46
2021/07/21 08:48:56;;;;;;;;;;;;;;;21.64;61.10;100371.38;5161924;27;743;-57
2021/07/21 08:51:21;;;;;;;;;;;;;;;21.76;60.17;100362.47;5160861;27;1208;-58
2021/07/21 08:53:48;;;;;;;;;;;;;;;21.77;60.15;100362.16;5179416;27;1992;-57
2021/07/21 08:56:13;;;;;;;;;;;;;;;21.37;61.27;100364.84;5146561;27;916;-52
2021/07/21 08:58:39;;;;;;;;;;;;;;;21.15;61.73;100355.44;5142672;27;958;-47
2021/07/21 09:01:04;;;;;;;;;;;;;;;20.64;60.18;100357.44;5161120;27;775;-56
2021/07/21 09:03:30;;;;;;;;;;;;;;;20.06;57.94;100361.72;5161212;27;1012;-56
2021/07/21 09:05:55;;;;;;;;;;;;;;;20.15;57.97;100361.84;5161101;27;758;-56
2021/07/21 09:08:21;;;;;;;;;;;;;;;20.18;55.01;100361.22;5160810;27;827;-56
2021/07/21 09:10:46;;;;;;;;;;;;;;;19.87;53.68;100361.84;5161293;27;823;-44
2021/07/21 09:13:12;;;;;;;;;;;;;;;19.98;52.64;100356.94;5163267;27;1922;-56
2021/07/21 09:15:38;;;;;;;;;;;;;;;20.13;52.21;100356.63;5171342;27;1389;-56
2021/07/21 09:18:06;;;;;;;;;;;;;;;19.99;52.93;100353.03;5173572;27;1299;-57
2021/07/21 09:20:35;;;;;;;;;;;;;;;19.93;53.36;100365.31;5162790;27;1463;-51
2021/07/21 09:23:01;;;;;;;;;;;;;;;20.09;52.86;100358.38;5160919;27;814;-51
2021/07/21 09:25:27;;;;;;;;;;;;;;;20.16;52.73;100358.78;5161223;27;1581;-56
2021/07/21 09:27:53;;;;;;;;;;;;;;;20.09;52.84;100352.84;5167105;27;1265;-55
2021/07/21 09:30:38;;;;;;;;;;;;;;;20.24;53.12;100357.22;5161073;27;794;-54
2021/07/21 09:33:21;;;;;;;;;;;;;;;20.33;54.75;100351.81;5166420;27;1905;-59
2021/07/21 09:35:47;;;;;;;;;;;;;;;20.89;55.00;100349.72;5160933;27;779;-54
2021/07/21 09:38:13;;;;;;;;;;;;;;;20.79;56.80;100331.44;5164513;27;1563;-55
2021/07/21 09:40:43;;;;;;;;;;;;;;;21.06;57.44;100354.56;5169990;27;1330;-56
2021/07/21 09:43:09;;;;;;;;;;;;;;;20.74;59.40;100350.91;5160379;27;993;-58
2021/07/21 09:45:38;;;;;;;;;;;;;;;20.81;59.92;100356.81;5160598;27;799;-53
2021/07/21 09:48:03;;;;;;;;;;;;;;;20.61;58.93;100354.50;5160894;27;793;-59
2021/07/21 09:50:29;;;;;;;;;;;;;;;20.42;60.75;100355.44;5160103;27;811;-46
2021/07/21 09:53:04;;;;;;;;;;;;;;;20.73;61.89;100354.78;5160371;27;1890;-56
2021/07/21 09:55:29;;;;;;;;;;;;;;;21.28;60.21;100361.19;5159253;27;929;-56
2021/07/21 09:57:56;;;;;;;;;;;;;;;21.39;59.94;100354.28;5138952;27;949;-45
2021/07/21 10:00:22;;;;;;;;;;;;;;;21.03;61.31;100346.91;5153862;27;816;-55
2021/07/21 10:02:48;;;;;;;;;;;;;;;21.15;60.84;100344.41;5159922;27;779;-57
2021/07/21 10:05:14;;;;;;;;;;;;;;;20.27;60.44;100336.47;5160314;27;1001;-58
2021/07/21 10:07:49;;;;;;;;;;;;;;;20.26;62.07;100340.34;5159994;27;866;-53
2021/07/21 10:10:15;;;;;;;;;;;;;;;21.11;62.06;100348.91;5145304;27;1521;-57
2021/07/21 10:12:41;;;;;;;;;;;;;;;21.10;62.33;100349.22;5137924;27;1913;-51
2021/07/21 10:15:06;;;;;;;;;;;;;;;21.10;62.13;100349.22;5139014;27;767;-50
2021/07/21 10:17:31;;;;;;;;;;;;;;;21.32;61.43;100348.38;5139467;27;792;-53
2021/07/21 10:19:57;;;;;;;;;;;;;;;21.43;60.89;100343.41;5139023;27;788;-44
2021/07/21 10:22:23;;;;;;;;;;;;;;;20.47;60.11;100336.00;5139429;27;809;-55
2021/07/21 10:24:48;;;;;;;;;;;;;;;20.37;60.37;100344.53;5138154;27;812;-58
2021/07/21 10:27:15;;;;;;;;;;;;;;;20.99;62.29;100343.94;5138314;27;922;-56
2021/07/21 10:29:42;;;;;;;;;;;;;;;21.41;62.06;100335.44;5139103;27;814;-56
2021/07/21 10:32:07;;;;;;;;;;;;;;;21.47;61.66;100336.91;5138684;27;1914;-43
2021/07/21 10:34:33;;;;;;;;;;;;;;;21.16;62.41;100339.66;5138859;27;831;-56
2021/07/21 10:36:58;;;;;;;;;;;;;;;20.99;62.13;100327.34;5102533;27;984;-57
2021/07/21 10:39:24;;;;;;;;;;;;;;;20.85;61.51;100329.38;5138515;27;739;-55
2021/07/21 10:41:50;;;;;;;;;;;;;;;20.34;60.66;100328.56;5120339;27;974;-49
2021/07/21 10:44:15;;;;;;;;;;;;;;;20.92;61.64;100332.50;5119956;27;897;-44
2021/07/21 10:46:44;;;;;;;;;;;;;;;21.56;63.15;100327.88;5138815;27;767;-43
2021/07/21 10:49:18;;;;;;;;;;;;;;;21.96;63.43;100334.22;5138534;27;815;-51
2021/07/21 10:54:24;;;;;;;;;;;;;;;21.34;64.86;100337.81;5127889;27;1909;-44
2021/07/21 10:59:53;;;;;;;;;;;;;;;20.41;59.54;100326.22;5062996;28;1278;-55
2021/07/21 11:02:19;;;;;;;;;;;;;;;20.25;59.81;100311.91;5095383;28;840;-55
2021/07/21 11:04:45;;;;;;;;;;;;;;;20.34;58.65;100326.63;5084481;28;1206;-55
2021/07/21 11:07:16;;;;;;;;;;;;;;;20.24;57.00;100320.50;5111154;27;1274;-45
2021/07/21 11:09:41;;;;;;;;;;;;;;;20.20;55.58;100319.50;5159237;27;817;-54
2021/07/21 11:12:07;;;;;;;;;;;;;;;20.09;55.37;100319.72;5147484;27;1237;-51
2021/07/21 11:14:33;;;;;;;;;;;;;;;20.16;55.78;100313.75;5128603;27;1997;-53
2021/07/21 11:17:01;;;;;;;;;;;;;;;20.31;56.75;100315.38;5140107;27;767;-50
2021/07/21 11:19:27;;;;;;;;;;;;;;;20.61;57.46;100313.06;5143425;27;1506;-48
2021/07/21 11:22:03;;;;;;;;;;;;;;;21.00;57.62;100319.91;5156144;27;883;-52
2021/07/21 11:24:29;;;;;;;;;;;;;;;21.02;58.30;100312.91;5158590;27;818;-53
2021/07/21 11:26:55;;;;;;;;;;;;;;;20.81;59.76;100311.78;5148356;27;1016;-52
2021/07/21 11:29:24;;;;;;;;;;;;;;;20.51;59.23;100314.94;5137142;27;834;-53
2021/07/21 11:31:49;;;;;;;;;;;;;;;20.00;61.62;100305.00;5137706;27;740;-54
2021/07/21 11:34:30;;;;;;;;;;;;;;;20.73;61.80;100310.56;5137609;27;1976;-54
2021/07/21 11:36:56;;;;;;;;;;;;;;;21.02;60.62;100306.56;5137745;27;824;-57
2021/07/21 11:39:44;;;;;;;;;;;;;;;21.17;60.19;100303.41;5137693;27;775;-47
2021/07/21 11:42:16;;;;;;;;;;;;;;;20.84;61.21;100298.13;5136463;27;953;-55
2021/07/21 11:44:42;;;;;;;;;;;;;;;20.69;61.37;100304.03;5137942;27;819;-48
2021/07/21 11:47:11;;;;;;;;;;;;;;;20.11;59.69;100298.13;5137377;27;787;-46
2021/07/21 11:49:36;;;;;;;;;;;;;;;20.64;62.16;100306.91;5136550;27;763;-52
2021/07/21 11:52:03;;;;;;;;;;;;;;;21.12;61.38;100300.75;5149398;27;1078;-54
2021/07/21 11:54:33;;;;;;;;;;;;;;;21.35;60.30;100306.28;5150570;27;1980;-54
2021/07/21 11:57:00;;;;;;;;;;;;;;;21.24;60.48;100302.13;5136778;28;993;-53
2021/07/21 11:59:29;;;;;;;;;;;;;;;20.95;61.50;100304.25;5137544;28;770;-54
2021/07/21 12:02:02;;;;;;;;;;;;;;;20.85;60.36;100307.28;5137069;28;786;-53
2021/07/21 12:04:28;;;;;;;;;;;;;;;20.20;59.00;100298.22;5151615;27;1466;-53
2021/07/21 12:06:53;;;;;;;;;;;;;;;20.64;62.17;100296.66;5174335;27;810;-57
2021/07/21 12:09:25;;;;;;;;;;;;;;;21.28;61.05;100308.66;5158697;27;768;-57
2021/07/21 12:11:54;;;;;;;;;;;;;;;21.27;60.91;100301.53;5158028;27;969;-48
2021/07/21 12:14:21;;;;;;;;;;;;;;;21.19;61.10;100301.13;5158143;27;1921;-54
2021/07/21 12:16:46;;;;;;;;;;;;;;;21.20;61.31;100291.72;5139545;27;1219;-49
2021/07/21 12:19:12;;;;;;;;;;;;;;;20.68;60.68;100296.91;5157537;27;894;-49
2021/07/21 12:21:37;;;;;;;;;;;;;;;20.28;58.71;100296.69;5139437;27;786;-53
2021/07/21 12:24:03;;;;;;;;;;;;;;;20.79;61.77;100302.97;5158444;27;1481;-52
2021/07/21 12:26:39;;;;;;;;;;;;;;;21.02;62.54;100301.03;5162885;27;1353;-50
2021/07/21 12:29:05;;;;;;;;;;;;;;;21.32;61.12;100298.59;5164110;27;1264;-55
2021/07/21 12:31:30;;;;;;;;;;;;;;;21.18;61.22;100305.03;5176759;27;1532;-49
2021/07/21 12:34:12;;;;;;;;;;;;;;;21.26;60.98;100295.16;5164060;27;1910;-52
2021/07/21 12:36:41;;;;;;;;;;;;;;;20.87;59.84;100299.47;5178367;27;841;-57
2021/07/21 12:39:06;;;;;;;;;;;;;;;20.40;59.45;100287.84;5178818;27;862;-58
2021/07/21 12:41:32;;;;;;;;;;;;;;;21.13;61.21;100291.34;5172010;27;1003;-55
2021/07/21 12:43:57;;;;;;;;;;;;;;;21.25;61.47;100276.13;5157488;27;743;-59
2021/07/21 12:46:23;;;;;;;;;;;;;;;21.42;60.79;100289.22;5137422;27;914;-58
2021/07/21 12:48:48;;;;;;;;;;;;;;;21.07;61.92;100286.25;5157846;27;938;-58
2021/07/21 12:51:14;;;;;;;;;;;;;;;21.05;61.90;100294.06;5138985;27;1309;-58
2021/07/21 12:53:41;;;;;;;;;;;;;;;20.57;60.30;100289.97;5139199;27;1984;-53
2021/07/21 12:56:07;;;;;;;;;;;;;;;20.24;60.77;100290.16;5139226;27;925;-58
2021/07/21 12:58:32;;;;;;;;;;;;;;;21.07;61.93;100289.84;5137916;27;882;-57
2021/07/21 13:00:57;;;;;;;;;;;;;;;21.25;61.64;100290.78;5158018;27;826;-45
2021/07/21 13:03:23;;;;;;;;;;;;;;;21.38;60.74;100286.28;5161546;27;1125;-57
2021/07/21 13:06:00;;;;;;;;;;;;;;;21.07;61.77;100291.78;5160077;27;1224;-48
2021/07/21 13:08:29;;;;;;;;;;;;;;;21.16;61.45;100289.91;5164951;27;1250;-55
2021/07/21 13:11:01;;;;;;;;;;;;;;;20.47;59.88;100283.53;5175484;27;834;-57
2021/07/21 13:13:28;;;;;;;;;;;;;;;20.54;62.26;100285.03;5161192;27;1980;-60